createdAt,value
2018-10-21T00:00:56.830Z,51.47
2018-10-21T00:03:24.555Z,51.65
2018-10-21T00:05:52.361Z,52.00
2018-10-21T00:08:19.210Z,51.97
2018-10-21T00:10:46.644Z,51.63
2018-10-21T00:13:14.977Z,51.95
2018-10-21T00:15:42.831Z,52.30
2018-10-21T00:18:09.541Z,52.01
2018-10-21T00:20:37.438Z,51.74
2018-10-21T00:23:05.439Z,51.76
2018-10-21T00:25:33.106Z,51.39
2018-10-21T00:28:00.899Z,51.98
2018-10-21T00:30:28.548Z,52.10
2018-10-21T00:32:56.414Z,51.85
2018-10-21T00:35:24.195Z,51.97
2018-10-21T00:37:51.845Z,51.88
2018-10-21T00:40:19.704Z,51.92
2018-10-21T00:42:47.401Z,52.17
2018-10-21T00:45:15.125Z,52.16
2018-10-21T00:47:43.740Z,52.28
2018-10-21T00:50:11.501Z,52.23
2018-10-21T00:52:39.458Z,51.91
2018-10-21T00:55:07.981Z,52.18
2018-10-21T00:57:35.724Z,52.02
2018-10-21T01:00:03.688Z,51.69
2018-10-21T01:02:30.517Z,52.13
2018-10-21T01:04:57.351Z,52.37
2018-10-21T01:07:24.173Z,52.16
2018-10-21T01:09:51.006Z,52.22
2018-10-21T01:12:18.836Z,52.00
2018-10-21T01:14:46.560Z,52.22
2018-10-21T01:17:14.486Z,52.26
2018-10-21T01:19:41.672Z,52.63
2018-10-21T01:22:08.518Z,52.11
2018-10-21T01:24:35.351Z,52.32
2018-10-21T01:27:03.191Z,51.85
2018-10-21T01:29:31.089Z,51.81
2018-10-21T01:31:58.034Z,52.43
2018-10-21T01:34:24.876Z,51.64
2018-10-21T01:36:52.752Z,52.48
2018-10-21T01:39:22.861Z,51.84
2018-10-21T01:41:49.734Z,52.73
2018-10-21T01:44:16.569Z,51.92
2018-10-21T01:46:43.593Z,51.90
2018-10-21T01:49:10.428Z,51.91
2018-10-21T01:51:37.257Z,52.01
2018-10-21T01:54:04.395Z,52.17
2018-10-21T01:56:31.224Z,52.07
2018-10-21T01:58:58.049Z,52.18
2018-10-21T02:01:24.883Z,52.39
2018-10-21T02:03:52.273Z,52.14
2018-10-21T02:06:19.110Z,52.30
2018-10-21T02:08:45.936Z,51.87
2018-10-21T02:11:14.176Z,51.90
2018-10-21T02:13:41.015Z,52.28
2018-10-21T02:16:08.780Z,52.61
2018-10-21T02:18:36.387Z,52.57
2018-10-21T02:21:04.165Z,52.28
2018-10-21T02:23:30.980Z,52.52
2018-10-21T02:25:58.272Z,51.92
2018-10-21T02:28:26.112Z,52.05
2018-10-21T02:30:53.021Z,51.51
2018-10-21T02:33:19.911Z,51.94
2018-10-21T02:35:46.854Z,51.79
2018-10-21T02:38:14.514Z,51.61
2018-10-21T02:41:47.296Z,51.51
2018-10-21T02:44:19.077Z,51.46
2018-10-21T02:46:46.513Z,51.33
2018-10-21T02:49:14.523Z,51.17
2018-10-21T02:51:41.351Z,51.62
2018-10-21T02:54:08.477Z,51.52
2018-10-21T02:56:35.312Z,51.32
2018-10-21T02:59:02.142Z,51.74
2018-10-21T03:01:28.980Z,51.31
2018-10-21T03:03:55.807Z,51.52
2018-10-21T03:06:23.607Z,50.59
2018-10-21T03:08:51.241Z,51.36
2018-10-21T03:11:18.901Z,51.19
2018-10-21T03:13:45.834Z,50.89
2018-10-21T03:16:12.674Z,51.18
2018-10-21T03:18:39.537Z,51.54
2018-10-21T03:21:06.482Z,51.75
2018-10-21T03:23:33.813Z,51.24
2018-10-21T03:26:00.900Z,50.83
2018-10-21T03:28:28.690Z,51.00
2018-10-21T03:30:55.514Z,51.80
2018-10-21T03:33:23.708Z,52.51
2018-10-21T03:35:50.429Z,51.77
2018-10-21T03:38:17.272Z,51.38
2018-10-21T03:40:44.492Z,51.81
2018-10-21T03:43:11.409Z,51.92
2018-10-21T03:45:39.183Z,51.04
2018-10-21T03:48:07.008Z,51.41
2018-10-21T03:50:34.689Z,51.49
2018-10-21T03:53:02.498Z,51.41
2018-10-21T03:55:30.474Z,50.63
2018-10-21T03:58:01.274Z,50.81
2018-10-21T04:00:28.117Z,51.02
2018-10-21T04:02:54.937Z,51.33
2018-10-21T04:05:22.614Z,51.07
2018-10-21T04:07:50.334Z,50.97
2018-10-21T04:10:17.183Z,51.40
2018-10-21T04:12:44.952Z,51.57
2018-10-21T04:15:12.698Z,51.41
2018-10-21T04:17:40.411Z,51.35
2018-10-21T04:20:08.655Z,51.46
2018-10-21T04:22:52.263Z,51.86
2018-10-21T04:25:19.736Z,51.22
2018-10-21T04:27:46.555Z,50.86
2018-10-21T04:30:17.439Z,51.20
2018-10-21T04:32:45.681Z,51.03
2018-10-21T04:35:14.225Z,50.46
2018-10-21T04:37:46.636Z,50.52
2018-10-21T04:40:15.903Z,50.84
2018-10-21T04:42:43.500Z,51.54
2018-10-21T04:45:11.090Z,51.45
2018-10-21T04:47:38.955Z,50.94
2018-10-21T04:50:07.313Z,50.63
2018-10-21T04:52:34.960Z,50.25
2018-10-21T04:55:16.840Z,50.02
2018-10-21T04:57:44.881Z,50.11
2018-10-21T05:00:14.299Z,50.12
2018-10-21T05:02:42.069Z,50.40
2018-10-21T05:05:11.059Z,51.04
2018-10-21T05:07:39.076Z,51.17
2018-10-21T05:10:08.450Z,50.59
2018-10-21T05:12:35.312Z,50.45
2018-10-21T05:15:03.148Z,50.43
2018-10-21T05:17:30.969Z,50.09
2018-10-21T05:19:58.707Z,50.21
2018-10-21T05:22:25.546Z,50.27
2018-10-21T05:24:52.410Z,50.14
2018-10-21T05:27:19.249Z,49.68
2018-10-21T05:29:46.066Z,50.02
2018-10-21T05:32:13.834Z,49.62
2018-10-21T05:34:41.559Z,49.43
2018-10-21T05:37:09.247Z,49.42
2018-10-21T05:39:37.089Z,50.04
2018-10-21T05:42:04.845Z,50.15
2018-10-21T05:44:32.562Z,49.72
2018-10-21T05:46:59.404Z,50.43
2018-10-21T05:49:26.255Z,49.74
2018-10-21T05:51:53.093Z,49.86
2018-10-21T05:54:20.300Z,49.51
2018-10-21T05:56:49.907Z,49.70
2018-10-21T05:59:18.466Z,49.95
2018-10-21T06:01:46.134Z,49.81
2018-10-21T06:04:14.274Z,49.87
2018-10-21T06:06:41.075Z,49.84
2018-10-21T06:09:08.780Z,50.14
2018-10-21T06:11:35.698Z,50.63
2018-10-21T06:14:02.616Z,50.63
2018-10-21T06:16:34.012Z,50.38
2018-10-21T06:19:05.381Z,50.07
2018-10-21T06:21:32.228Z,49.60
2018-10-21T06:23:59.070Z,49.99
2018-10-21T06:26:25.943Z,50.11
2018-10-21T06:28:52.785Z,49.94
2018-10-21T06:31:19.619Z,49.48
2018-10-21T06:33:46.737Z,49.72
2018-10-21T06:36:14.553Z,49.96
2018-10-21T06:38:41.377Z,49.85
2018-10-21T06:41:08.196Z,49.38
2018-10-21T06:43:35.818Z,49.27
2018-10-21T06:46:03.459Z,49.71
2018-10-21T06:48:31.366Z,49.19
2018-10-21T06:50:59.190Z,49.40
2018-10-21T06:53:26.088Z,49.60
2018-10-21T06:55:53.986Z,50.03
2018-10-21T06:58:20.852Z,50.43
2018-10-21T07:00:47.681Z,50.48
2018-10-21T07:03:15.171Z,50.12
2018-10-21T07:06:24.607Z,50.21
2018-10-21T07:08:53.727Z,50.21
2018-10-21T07:11:20.552Z,49.84
2018-10-21T07:13:48.317Z,49.74
2018-10-21T07:16:15.421Z,50.02
2018-10-21T07:18:44.009Z,50.09
2018-10-21T07:21:11.683Z,49.58
2018-10-21T07:23:38.947Z,50.30
2018-10-21T07:26:05.858Z,50.02
2018-10-21T07:28:32.789Z,50.23
2018-10-21T07:30:59.619Z,50.78
2018-10-21T07:33:27.403Z,50.87
2018-10-21T07:35:55.206Z,50.74
2018-10-21T07:38:22.053Z,51.15
2018-10-21T07:40:49.043Z,51.10
2018-10-21T07:43:16.954Z,51.13
2018-10-21T07:45:45.810Z,51.48
2018-10-21T07:48:13.913Z,51.05
2018-10-21T07:50:41.676Z,50.68
2018-10-21T07:53:08.556Z,50.65
2018-10-21T07:55:35.400Z,51.12
2018-10-21T07:58:02.384Z,51.30
2018-10-21T08:00:29.244Z,51.67
2018-10-21T08:02:56.165Z,51.60
2018-10-21T08:05:28.847Z,51.96
2018-10-21T08:08:01.466Z,52.26
2018-10-21T08:10:28.502Z,51.82
2018-10-21T08:12:55.384Z,52.21
2018-10-21T08:15:22.239Z,52.52
2018-10-21T08:17:49.223Z,52.22
2018-10-21T08:20:16.179Z,52.51
2018-10-21T08:22:44.604Z,52.46
2018-10-21T08:25:11.441Z,52.36
2018-10-21T08:27:38.285Z,52.48
2018-10-21T08:30:05.989Z,52.79
2018-10-21T08:32:32.839Z,52.44
2018-10-21T08:35:00.586Z,52.59
2018-10-21T08:37:27.453Z,52.04
2018-10-21T08:39:54.329Z,52.61
2018-10-21T08:42:22.119Z,52.46
2018-10-21T08:44:48.957Z,51.88
2018-10-21T08:47:15.793Z,52.00
2018-10-21T08:49:44.078Z,51.63
2018-10-21T08:52:11.063Z,51.97
2018-10-21T08:54:37.821Z,52.23
2018-10-21T08:57:04.999Z,52.17
2018-10-21T08:59:31.830Z,52.66
2018-10-21T09:01:58.738Z,51.91
2018-10-21T09:04:25.613Z,52.54
2018-10-21T09:06:53.423Z,53.00
2018-10-21T09:09:20.299Z,52.95
2018-10-21T09:11:48.365Z,53.18
2018-10-21T09:14:15.236Z,52.48
2018-10-21T09:16:42.212Z,53.23
2018-10-21T09:19:09.814Z,53.14
2018-10-21T09:21:37.635Z,53.10
2018-10-21T09:24:05.305Z,53.64
2018-10-21T09:26:33.152Z,53.19
2018-10-21T09:29:00.009Z,52.74
2018-10-21T09:31:27.910Z,52.78
2018-10-21T09:33:55.694Z,53.01
2018-10-21T09:36:22.526Z,53.04
2018-10-21T09:38:49.414Z,52.32
2018-10-21T09:41:16.280Z,52.48
2018-10-21T09:43:44.766Z,53.01
2018-10-21T09:46:11.736Z,52.66
2018-10-21T09:48:38.550Z,52.23
2018-10-21T09:51:06.111Z,52.62
2018-10-21T09:53:33.165Z,52.85
2018-10-21T09:56:00.100Z,52.66
2018-10-21T09:58:27.146Z,52.83
2018-10-21T10:00:59.518Z,53.52
2018-10-21T10:03:26.487Z,53.04
2018-10-21T10:05:54.249Z,52.97
2018-10-21T10:08:21.093Z,52.56
2018-10-21T10:10:47.935Z,52.71
2018-10-21T10:13:16.558Z,52.56
2018-10-21T10:15:43.622Z,52.30
2018-10-21T10:18:10.473Z,52.20
2018-10-21T10:20:37.327Z,52.04
2018-10-21T10:23:04.523Z,51.76
2018-10-21T10:25:31.307Z,52.00
2018-10-21T10:27:59.170Z,51.53
2018-10-21T10:30:26.184Z,51.58
2018-10-21T10:32:52.993Z,51.71
2018-10-21T10:35:19.842Z,52.05
2018-10-21T10:37:46.661Z,51.58
2018-10-21T10:40:14.756Z,51.30
2018-10-21T10:42:41.776Z,50.94
2018-10-21T10:45:08.651Z,51.20
2018-10-21T10:47:35.711Z,51.12
2018-10-21T10:50:03.786Z,51.41
2018-10-21T10:52:30.634Z,52.07
2018-10-21T10:54:57.494Z,53.53
2018-10-21T10:57:24.341Z,53.08
2018-10-21T10:59:51.342Z,53.57
2018-10-21T11:02:19.213Z,51.89
2018-10-21T11:04:47.099Z,51.62
2018-10-21T11:07:14.530Z,51.59
2018-10-21T11:09:41.389Z,52.32
2018-10-21T11:12:08.222Z,52.00
2018-10-21T11:14:36.158Z,52.00
2018-10-21T11:17:03.044Z,51.15
2018-10-21T11:19:29.880Z,51.56
2018-10-21T11:21:56.752Z,51.02
2018-10-21T11:24:23.599Z,50.81
2018-10-21T11:26:51.389Z,51.23
2018-10-21T11:29:19.058Z,50.74
2018-10-21T11:31:45.897Z,52.45
2018-10-21T11:34:12.804Z,53.24
2018-10-21T11:36:40.928Z,51.73
2018-10-21T11:39:09.335Z,52.95
2018-10-21T11:41:36.220Z,53.36
2018-10-21T11:44:04.004Z,53.86
2018-10-21T11:46:30.965Z,53.38
2018-10-21T11:48:57.803Z,53.10
2018-10-21T11:51:25.661Z,53.30
2018-10-21T11:53:52.491Z,52.58
2018-10-21T11:56:19.376Z,52.74
2018-10-21T11:58:46.194Z,51.93
2018-10-21T12:01:13.682Z,52.36
2018-10-21T12:03:40.914Z,51.73
2018-10-21T12:06:08.750Z,53.41
2018-10-21T12:08:35.628Z,53.15
2018-10-21T12:11:02.491Z,53.44
2018-10-21T12:13:29.408Z,51.97
2018-10-21T12:15:56.370Z,50.97
2018-10-21T12:18:24.259Z,51.05
2018-10-21T12:20:51.087Z,51.80
2018-10-21T12:23:18.002Z,52.39
2018-10-21T12:25:44.940Z,51.89
2018-10-21T12:28:11.791Z,51.35
2018-10-21T12:30:38.637Z,51.86
2018-10-21T12:33:05.516Z,50.54
2018-10-21T12:35:33.133Z,50.63
2018-10-21T12:38:00.021Z,51.95
2018-10-21T12:40:26.856Z,51.09
2018-10-21T12:42:53.670Z,50.71
2018-10-21T12:45:20.598Z,53.08
2018-10-21T12:47:47.509Z,51.64
2018-10-21T12:50:15.262Z,52.78
2018-10-21T12:52:42.094Z,52.66
2018-10-21T12:55:10.064Z,51.06
2018-10-21T12:57:36.924Z,50.70
2018-10-21T13:00:03.804Z,50.47
2018-10-21T13:02:30.663Z,49.89
2018-10-21T13:04:58.496Z,50.44
2018-10-21T13:07:25.337Z,52.66
2018-10-21T13:09:52.175Z,53.34
2018-10-21T13:12:19.024Z,52.24
2018-10-21T13:14:45.849Z,52.84
2018-10-21T13:17:12.688Z,53.28
2018-10-21T13:19:39.580Z,53.36
2018-10-21T13:22:06.518Z,52.28
2018-10-21T13:24:33.357Z,52.93
2018-10-21T13:27:00.182Z,52.62
2018-10-21T13:29:27.015Z,51.66
2018-10-21T13:31:53.858Z,51.96
2018-10-21T13:34:21.707Z,51.95
2018-10-21T13:36:49.721Z,52.25
2018-10-21T13:39:17.594Z,51.74
2018-10-21T13:41:45.472Z,52.69
2018-10-21T13:44:12.297Z,51.41
2018-10-21T13:46:40.731Z,52.46
2018-10-21T13:49:07.605Z,52.15
2018-10-21T13:51:35.757Z,52.63
2018-10-21T13:54:03.551Z,52.75
2018-10-21T13:56:31.274Z,52.19
2018-10-21T13:58:58.124Z,53.77
2018-10-21T14:01:26.028Z,53.30
2018-10-21T14:03:53.843Z,53.18
2018-10-21T14:06:20.783Z,52.30
2018-10-21T14:08:48.622Z,52.71
2018-10-21T14:11:15.509Z,53.48
2018-10-21T14:13:44.024Z,52.54
2018-10-21T14:16:11.544Z,53.57
2018-10-21T14:18:39.311Z,53.61
2018-10-21T14:21:07.083Z,53.59
2018-10-21T14:23:33.931Z,54.28
2018-10-21T14:26:01.693Z,54.05
2018-10-21T14:28:29.433Z,53.02
2018-10-21T14:30:57.218Z,52.42
2018-10-21T14:33:25.009Z,52.38
2018-10-21T14:35:52.675Z,52.36
2018-10-21T14:38:19.569Z,52.13
2018-10-21T14:40:46.458Z,51.47
2018-10-21T14:43:14.035Z,53.37
2018-10-21T14:45:40.900Z,53.52
2018-10-21T14:48:07.935Z,54.10
2018-10-21T14:50:35.549Z,54.08
2018-10-21T14:53:03.295Z,51.62
2018-10-21T14:55:30.148Z,52.75
2018-10-21T14:57:57.784Z,52.21
2018-10-21T15:00:25.738Z,52.56
2018-10-21T15:02:52.469Z,54.05
2018-10-21T15:05:20.118Z,53.32
2018-10-21T15:07:48.036Z,53.20
2018-10-21T15:10:15.912Z,51.33
2018-10-21T15:12:44.433Z,52.53
2018-10-21T15:15:12.149Z,53.35
2018-10-21T15:17:39.230Z,53.30
2018-10-21T15:20:06.812Z,53.04
2018-10-21T15:22:33.642Z,53.61
2018-10-21T15:25:00.519Z,53.03
2018-10-21T15:27:28.392Z,52.19
2018-10-21T15:29:55.380Z,53.38
2018-10-21T15:32:23.404Z,52.66
2018-10-21T15:34:50.316Z,52.64
2018-10-21T15:37:17.158Z,52.87
2018-10-21T15:39:45.030Z,53.30
2018-10-21T15:42:11.970Z,53.01
2018-10-21T15:44:38.789Z,52.55
2018-10-21T15:47:05.907Z,52.66
2018-10-21T15:49:32.839Z,51.82
2018-10-21T15:52:00.694Z,52.01
2018-10-21T15:54:27.619Z,52.15
2018-10-21T15:56:55.432Z,52.30
2018-10-21T15:59:22.312Z,52.18
2018-10-21T16:01:49.151Z,52.02
2018-10-21T16:04:16.111Z,52.44
2018-10-21T16:06:43.471Z,52.49
2018-10-21T16:09:12.189Z,52.51
2018-10-21T16:11:39.289Z,51.97
2018-10-21T16:14:07.092Z,52.01
2018-10-21T16:16:33.946Z,52.03
2018-10-21T16:19:01.817Z,52.42
2018-10-21T16:21:28.669Z,52.40
2018-10-21T16:23:55.505Z,53.08
2018-10-21T16:26:23.354Z,51.71
2018-10-21T16:28:51.252Z,52.70
2018-10-21T16:31:19.151Z,52.15
2018-10-21T16:33:47.003Z,52.08
2018-10-21T16:36:14.761Z,52.45
2018-10-21T16:38:41.644Z,52.56
2018-10-21T16:41:09.303Z,52.15
2018-10-21T16:43:36.180Z,52.72
2018-10-21T16:46:03.843Z,53.08
2018-10-21T16:48:30.782Z,52.77
2018-10-21T16:50:58.589Z,52.46
2018-10-21T16:53:25.587Z,53.02
2018-10-21T16:55:53.430Z,52.72
2018-10-21T16:58:20.266Z,52.42
2018-10-21T17:00:48.149Z,52.86
2018-10-21T17:03:16.041Z,52.92
2018-10-21T17:05:43.740Z,52.24
2018-10-21T17:08:11.625Z,52.38
2018-10-21T17:10:39.591Z,52.14
2018-10-21T17:13:07.359Z,52.19
2018-10-21T17:15:34.260Z,52.56
2018-10-21T17:18:01.107Z,52.69
2018-10-21T17:20:28.737Z,52.41
2018-10-21T17:22:56.531Z,52.64
2018-10-21T17:25:24.181Z,52.52
2018-10-21T17:27:52.092Z,52.66
2018-10-21T17:30:18.991Z,52.74
2018-10-21T17:32:46.143Z,52.69
2018-10-21T17:35:14.038Z,52.31
2018-10-21T17:37:41.292Z,53.51
2018-10-21T17:40:08.873Z,52.77
2018-10-21T17:42:35.739Z,53.30
2018-10-21T17:45:02.576Z,53.13
2018-10-21T17:47:29.388Z,52.93
2018-10-21T17:49:56.529Z,52.68
2018-10-21T17:52:24.348Z,53.02
2018-10-21T17:54:52.124Z,53.19
2018-10-21T17:57:19.989Z,53.00
2018-10-21T17:59:47.812Z,52.92
2018-10-21T18:02:16.865Z,52.69
2018-10-21T18:04:44.494Z,52.46
2018-10-21T18:07:12.326Z,52.73
2018-10-21T18:09:40.114Z,52.68
2018-10-21T18:12:07.628Z,52.85
2018-10-21T18:14:35.565Z,52.79
2018-10-21T18:17:03.707Z,52.56
2018-10-21T18:19:31.484Z,53.08
2018-10-21T18:21:59.279Z,52.18
2018-10-21T18:24:27.113Z,52.24
2018-10-21T18:26:54.960Z,51.74
2018-10-21T18:29:22.771Z,52.12
2018-10-21T18:31:49.620Z,52.59
2018-10-21T18:34:16.603Z,52.25
2018-10-21T18:36:45.000Z,52.38
2018-10-21T18:39:12.856Z,52.05
2018-10-21T18:41:40.714Z,52.29
2018-10-21T18:44:08.216Z,52.51
2018-10-21T18:46:36.073Z,51.98
2018-10-21T18:49:02.978Z,52.26
2018-10-21T18:51:29.858Z,52.38
2018-10-21T18:53:56.690Z,51.67
2018-10-21T18:56:24.431Z,51.84
2018-10-21T18:58:52.226Z,52.00
2018-10-21T19:01:19.076Z,51.64
2018-10-21T19:03:45.968Z,51.36
2018-10-21T19:06:12.873Z,51.58
2018-10-21T19:08:39.747Z,51.93
2018-10-21T19:11:06.595Z,51.64
2018-10-21T19:13:33.638Z,52.13
2018-10-21T19:16:00.365Z,52.29
2018-10-21T19:18:27.227Z,51.79
2018-10-21T19:20:54.084Z,51.57
2018-10-21T19:23:20.921Z,51.49
2018-10-21T19:25:47.771Z,51.18
2018-10-21T19:28:15.551Z,51.57
2018-10-21T19:30:42.454Z,51.07
2018-10-21T19:33:10.390Z,51.35
2018-10-21T19:35:38.201Z,51.35
2018-10-21T19:38:05.083Z,51.39
2018-10-21T19:40:32.924Z,51.42
2018-10-21T19:42:59.772Z,51.40
2018-10-21T19:45:26.706Z,51.18
2018-10-21T19:47:54.430Z,51.38
2018-10-21T19:50:22.245Z,51.43
2018-10-21T19:52:49.912Z,51.17
2018-10-21T19:55:16.895Z,51.14
2018-10-21T19:57:44.548Z,51.07
2018-10-21T20:00:14.156Z,51.25
2018-10-21T20:02:42.307Z,50.94
2018-10-21T20:05:09.659Z,51.43
2018-10-21T20:07:36.521Z,51.53
2018-10-21T20:10:03.797Z,50.68
2018-10-21T20:12:30.631Z,51.04
2018-10-21T20:14:58.515Z,51.14
2018-10-21T20:17:25.407Z,51.08
2018-10-21T20:19:52.297Z,51.03
2018-10-21T20:22:20.111Z,51.04
2018-10-21T20:24:46.945Z,51.40
2018-10-21T20:27:15.622Z,50.64
2018-10-21T20:29:42.464Z,50.67
2018-10-21T20:32:09.307Z,50.89
2018-10-21T20:34:36.190Z,51.11
2018-10-21T20:37:03.021Z,50.99
2018-10-21T20:39:29.826Z,51.22
2018-10-21T20:41:56.860Z,50.84
2018-10-21T20:44:24.517Z,50.66
2018-10-21T21:03:29.742Z,50.84
2018-10-21T21:05:56.616Z,50.82
2018-10-21T21:08:23.567Z,51.00
2018-10-21T21:10:50.359Z,50.95
2018-10-21T21:13:17.192Z,51.06
2018-10-21T21:15:44.925Z,50.92
2018-10-21T21:18:12.799Z,50.87
2018-10-21T21:20:40.722Z,51.07
2018-10-21T21:23:08.497Z,50.93
2018-10-21T21:25:36.155Z,50.66
2018-10-21T21:28:04.741Z,50.64
2018-10-21T21:30:32.524Z,51.07
2018-10-21T21:32:59.449Z,50.43
2018-10-21T21:35:27.315Z,50.81
2018-10-21T21:37:55.119Z,51.04
2018-10-21T21:40:21.959Z,51.30
2018-10-21T21:42:48.813Z,50.58
2018-10-21T21:45:16.452Z,50.68
2018-10-21T21:47:45.306Z,50.95
2018-10-21T21:50:12.145Z,50.91
2018-10-21T21:52:39.994Z,51.21
2018-10-21T21:55:06.834Z,50.90
2018-10-21T21:57:34.752Z,50.56
2018-10-21T22:00:02.611Z,50.63
2018-10-21T22:02:29.473Z,50.40
2018-10-21T22:04:56.663Z,50.64
2018-10-21T22:07:23.540Z,50.23
2018-10-21T22:09:50.354Z,51.15
2018-10-21T22:12:18.183Z,50.80
2018-10-21T22:14:45.735Z,50.62
2018-10-21T22:17:12.637Z,50.17
2018-10-21T22:19:39.469Z,50.19
2018-10-21T22:22:06.358Z,50.55
2018-10-21T22:24:34.215Z,50.57
2018-10-21T22:27:01.073Z,50.30
2018-10-21T22:29:28.940Z,50.29
2018-10-21T22:31:56.724Z,50.52
2018-10-21T22:34:24.399Z,50.69
2018-10-21T22:36:51.324Z,50.39
2018-10-21T22:39:18.232Z,50.42
2018-10-21T22:41:52.011Z,50.78
2018-10-21T22:44:18.882Z,50.56
2018-10-21T22:46:46.722Z,50.48
2018-10-21T22:49:14.695Z,50.33
2018-10-21T22:51:41.558Z,50.42
2018-10-21T22:54:09.307Z,50.23
2018-10-21T22:56:37.148Z,50.40
2018-10-21T22:59:05.051Z,50.02
2018-10-21T23:01:32.798Z,50.38
2018-10-21T23:03:59.705Z,50.42
2018-10-21T23:06:27.548Z,50.17
2018-10-21T23:08:55.299Z,50.25
2018-10-21T23:11:22.129Z,50.52
2018-10-21T23:13:48.980Z,50.46
2018-10-21T23:16:16.636Z,50.34
2018-10-21T23:18:44.659Z,50.09
2018-10-21T23:21:11.507Z,50.02
2018-10-21T23:23:38.388Z,50.33
2018-10-21T23:26:05.278Z,50.23
2018-10-21T23:28:32.159Z,50.27
2018-10-21T23:30:59.126Z,50.09
2018-10-21T23:33:25.975Z,50.04
2018-10-21T23:35:53.818Z,50.10
2018-10-21T23:38:20.649Z,50.27
2018-10-21T23:40:48.400Z,50.14
2018-10-21T23:43:15.239Z,50.23
2018-10-21T23:45:42.908Z,50.21
2018-10-21T23:48:10.369Z,49.74
2018-10-21T23:50:38.100Z,50.25
2018-10-21T23:53:05.053Z,50.30
2018-10-21T23:55:32.893Z,49.84
2018-10-21T23:58:00.715Z,49.74
